createdAt,value
2023-11-14T00:01:43.852Z,43.10
2023-11-14T00:04:12.136Z,42.30
2023-11-14T00:06:40.909Z,42.30
2023-11-14T00:09:10.450Z,39.10
2023-11-14T00:11:38.870Z,40.10
2023-11-14T00:14:07.972Z,39.60
2023-11-14T00:16:36.422Z,41.00
2023-11-14T00:19:06.287Z,40.80
2023-11-14T00:21:34.376Z,40.20
2023-11-14T00:24:02.738Z,39.10
2023-11-14T00:26:30.732Z,38.70
2023-11-14T00:28:59.749Z,39.80
2023-11-14T00:31:28.247Z,40.10
2023-11-14T00:33:56.638Z,39.50
2023-11-14T00:36:26.410Z,40.50
2023-11-14T00:39:00.791Z,40.20
2023-11-14T00:41:30.073Z,39.90
2023-11-14T00:43:58.675Z,41.40
2023-11-14T00:46:27.234Z,41.10
2023-11-14T00:48:55.662Z,42.60
2023-11-14T00:51:24.127Z,42.20
2023-11-14T00:53:53.746Z,42.60
2023-11-14T00:56:22.063Z,42.00
2023-11-14T00:58:50.204Z,41.80
2023-11-14T01:01:20.338Z,41.70
2023-11-14T01:03:49.243Z,42.60
2023-11-14T01:06:18.257Z,41.80
2023-11-14T01:08:46.800Z,41.90
2023-11-14T01:11:16.260Z,41.80
2023-11-14T01:13:45.284Z,42.10
2023-11-14T01:16:14.110Z,43.30
2023-11-14T01:18:42.579Z,42.80
2023-11-14T01:21:16.284Z,42.80
2023-11-14T01:23:44.538Z,42.50
2023-11-14T01:26:12.722Z,42.50
2023-11-14T01:28:43.282Z,42.80
2023-11-14T01:31:21.496Z,42.50
2023-11-14T01:33:50.034Z,43.10
2023-11-14T01:36:18.143Z,41.60
2023-11-14T01:38:46.363Z,43.00
2023-11-14T01:41:14.459Z,42.40
2023-11-14T01:43:48.649Z,41.90
2023-11-14T01:46:19.696Z,41.00
2023-11-14T01:48:50.709Z,41.00
2023-11-14T01:51:20.649Z,43.30
2023-11-14T01:53:50.707Z,43.30
2023-11-14T01:56:19.726Z,42.80
2023-11-14T01:58:52.268Z,42.70
2023-11-14T02:01:22.240Z,44.20
2023-11-14T02:03:50.859Z,45.00
2023-11-14T02:06:19.294Z,44.30
2023-11-14T02:08:49.864Z,44.60
2023-11-14T02:11:18.513Z,46.00
2023-11-14T02:13:47.095Z,46.60
2023-11-14T02:16:16.621Z,46.70
2023-11-14T02:18:44.775Z,47.50
2023-11-14T02:21:14.701Z,47.10
2023-11-14T02:23:47.192Z,48.30
2023-11-14T02:26:16.982Z,47.80
2023-11-14T02:28:45.095Z,47.70
2023-11-14T02:31:13.881Z,47.40
2023-11-14T02:33:42.421Z,47.60
2023-11-14T02:36:10.971Z,46.80
2023-11-14T02:38:39.103Z,46.80
2023-11-14T02:41:08.803Z,46.80
2023-11-14T02:43:38.608Z,47.40
2023-11-14T02:46:06.679Z,46.80
2023-11-14T02:48:35.555Z,46.70
2023-11-14T02:51:03.825Z,46.80
2023-11-14T02:53:31.888Z,48.20
2023-11-14T02:56:01.623Z,47.90
2023-11-14T02:58:29.765Z,47.10
2023-11-14T03:01:00.261Z,47.40
2023-11-14T03:03:29.074Z,46.80
2023-11-14T03:05:57.325Z,46.80
2023-11-14T03:08:25.367Z,47.30
2023-11-14T03:10:53.542Z,47.30
2023-11-14T03:13:22.209Z,47.40
2023-11-14T03:15:50.360Z,46.80
2023-11-14T03:18:20.758Z,47.20
2023-11-14T03:20:49.604Z,47.80
2023-11-14T03:23:17.902Z,46.70
2023-11-14T03:25:46.084Z,46.70
2023-11-14T03:28:14.481Z,46.70
2023-11-14T03:30:42.850Z,46.70
2023-11-14T03:33:11.440Z,46.70
2023-11-14T03:35:41.109Z,46.60
2023-11-14T03:38:09.458Z,46.50
2023-11-14T03:40:38.623Z,47.90
2023-11-14T03:43:07.065Z,48.30
2023-11-14T03:45:35.772Z,48.40
2023-11-14T03:48:05.028Z,48.90
2023-11-14T03:50:33.630Z,48.20
2023-11-14T03:53:03.785Z,49.50
2023-11-14T03:55:32.622Z,49.30
2023-11-14T03:58:00.667Z,50.20
2023-11-14T04:00:28.687Z,50.40
2023-11-14T04:02:57.000Z,50.30
2023-11-14T04:05:25.178Z,50.90
2023-11-14T04:07:54.364Z,50.50
2023-11-14T04:10:24.797Z,50.90
2023-11-14T04:12:53.130Z,50.80
2023-11-14T04:15:21.444Z,51.20
2023-11-14T04:17:49.858Z,52.70
2023-11-14T04:20:18.306Z,51.30
2023-11-14T04:22:50.018Z,52.60
2023-11-14T04:25:18.564Z,52.30
2023-11-14T04:27:48.277Z,51.90
2023-11-14T04:30:16.834Z,52.60
2023-11-14T04:32:45.056Z,52.60
2023-11-14T04:35:13.282Z,52.40
2023-11-14T04:37:41.997Z,51.60
2023-11-14T04:40:11.631Z,52.20
2023-11-14T04:42:39.966Z,52.60
2023-11-14T04:45:10.579Z,52.30
2023-11-14T04:47:39.162Z,51.80
2023-11-14T04:50:12.042Z,52.10
2023-11-14T04:52:43.107Z,52.20
2023-11-14T04:55:12.179Z,52.60
2023-11-14T04:57:40.312Z,52.60
2023-11-14T05:00:12.707Z,52.60
2023-11-14T05:02:40.844Z,52.60
2023-11-14T05:05:09.244Z,53.30
2023-11-14T05:07:38.247Z,53.20
2023-11-14T05:10:07.322Z,53.30
2023-11-14T05:12:35.382Z,52.70
2023-11-14T05:15:04.002Z,52.60
2023-11-14T05:17:33.949Z,53.00
2023-11-14T05:20:02.428Z,52.80
2023-11-14T05:22:31.025Z,52.70
2023-11-14T05:24:59.650Z,52.90
2023-11-14T05:27:27.738Z,53.10
2023-11-14T05:29:56.444Z,52.80
2023-11-14T05:32:24.580Z,53.20
2023-11-14T05:34:54.218Z,52.70
2023-11-14T05:37:22.259Z,52.70
2023-11-14T05:39:52.702Z,52.60
2023-11-14T05:42:20.817Z,52.60
2023-11-14T05:44:50.248Z,52.30
2023-11-14T05:47:19.772Z,52.10
2023-11-14T05:49:48.635Z,51.40
2023-11-14T05:52:18.178Z,51.90
2023-11-14T05:54:47.008Z,51.50
2023-11-14T05:57:18.357Z,51.00
2023-11-14T05:59:50.840Z,50.60
2023-11-14T06:02:22.155Z,50.90
2023-11-14T06:04:51.044Z,51.00
2023-11-14T06:07:20.621Z,50.80
2023-11-14T06:09:49.130Z,51.20
2023-11-14T06:12:17.730Z,51.40
2023-11-14T06:14:46.044Z,51.60
2023-11-14T06:17:14.185Z,51.70
2023-11-14T06:19:42.295Z,51.40
2023-11-14T06:22:10.420Z,51.20
2023-11-14T06:24:40.338Z,51.90
2023-11-14T06:27:08.525Z,51.70
2023-11-14T06:29:36.585Z,51.50
2023-11-14T06:32:04.918Z,52.00
2023-11-14T06:34:33.101Z,52.30
2023-11-14T06:37:01.203Z,51.90
2023-11-14T06:39:29.780Z,51.70
2023-11-14T06:42:00.012Z,51.20
2023-11-14T06:44:28.462Z,50.80
2023-11-14T06:46:56.718Z,50.50
2023-11-14T06:49:24.839Z,49.70
2023-11-14T06:51:52.968Z,49.90
2023-11-14T06:54:21.101Z,49.10
2023-11-14T06:56:49.750Z,48.60
2023-11-14T06:59:19.742Z,47.70
2023-11-14T07:01:51.481Z,47.50
2023-11-14T07:04:21.078Z,47.80
2023-11-14T07:06:49.335Z,47.80
2023-11-14T07:09:22.784Z,46.60
2023-11-14T07:11:51.915Z,47.60
2023-11-14T07:14:22.633Z,46.90
2023-11-14T07:16:52.908Z,46.60
2023-11-14T07:19:23.066Z,46.60
2023-11-14T07:21:52.685Z,46.60
2023-11-14T07:24:20.826Z,46.50
2023-11-14T07:26:51.163Z,46.50
2023-11-14T07:29:22.374Z,46.60
2023-11-14T07:31:52.622Z,46.60
2023-11-14T07:34:20.895Z,47.40
2023-11-14T07:36:49.372Z,46.30
2023-11-14T07:39:18.827Z,46.00
2023-11-14T07:41:46.932Z,45.60
2023-11-14T07:44:15.400Z,45.20
2023-11-14T07:46:45.552Z,45.90
2023-11-14T07:49:15.373Z,44.90
2023-11-14T07:51:43.996Z,45.30
2023-11-14T07:54:12.439Z,45.30
2023-11-14T07:56:42.478Z,45.20
2023-11-14T07:59:11.343Z,44.80
2023-11-14T08:01:40.308Z,44.50
2023-11-14T08:04:11.579Z,44.20
2023-11-14T08:06:41.261Z,43.50
2023-11-14T08:09:09.425Z,44.10
2023-11-14T08:11:39.537Z,44.10
2023-11-14T08:14:09.317Z,43.80
2023-11-14T08:16:40.145Z,44.10
2023-11-14T08:19:08.355Z,44.00
2023-11-14T08:21:36.745Z,43.90
2023-11-14T08:24:06.734Z,44.80
2023-11-14T08:26:34.812Z,45.70
2023-11-14T08:29:03.231Z,46.60
2023-11-14T08:31:31.695Z,46.70
2023-11-14T08:34:00.279Z,46.80
2023-11-14T08:36:28.421Z,46.80
2023-11-14T08:38:56.825Z,46.90
2023-11-14T08:41:26.446Z,46.90
2023-11-14T08:43:55.024Z,46.80
2023-11-14T08:46:23.102Z,46.90
2023-11-14T08:48:51.299Z,46.90
2023-11-14T08:51:19.373Z,46.90
2023-11-14T08:53:47.804Z,46.80
2023-11-14T08:56:16.195Z,46.90
2023-11-14T08:58:45.848Z,47.10
2023-11-14T09:01:15.804Z,45.80
2023-11-14T09:03:45.415Z,45.80
2023-11-14T09:06:13.600Z,44.90
2023-11-14T09:08:41.722Z,44.60
2023-11-14T09:11:09.917Z,44.50
2023-11-14T09:13:38.265Z,43.30
2023-11-14T09:16:10.484Z,43.80
2023-11-14T09:18:40.172Z,43.10
2023-11-14T09:21:08.703Z,43.50
2023-11-14T09:23:37.353Z,43.30
2023-11-14T09:26:08.236Z,43.20
2023-11-14T09:28:37.271Z,42.60
2023-11-14T09:31:07.854Z,42.20
2023-11-14T09:33:36.586Z,43.90
2023-11-14T09:36:05.519Z,43.10
2023-11-14T09:38:33.816Z,44.20
2023-11-14T09:41:03.821Z,43.20
2023-11-14T09:43:32.253Z,44.30
2023-11-14T09:46:00.762Z,42.90
2023-11-14T09:48:30.548Z,42.80
2023-11-14T09:50:59.410Z,42.90
2023-11-14T09:53:28.921Z,42.30
2023-11-14T09:55:58.294Z,42.80
2023-11-14T09:58:26.950Z,41.90
2023-11-14T10:00:55.088Z,43.00
2023-11-14T10:03:23.664Z,42.30
2023-11-14T10:05:53.139Z,41.70
2023-11-14T10:08:21.810Z,41.90
2023-11-14T10:11:07.100Z,41.10
2023-11-14T10:13:37.234Z,41.10
2023-11-14T10:16:20.222Z,42.80
2023-11-14T10:18:50.342Z,42.20
2023-11-14T10:21:33.964Z,42.80
2023-11-14T10:24:03.565Z,41.70
2023-11-14T10:26:31.828Z,41.20
2023-11-14T10:29:03.514Z,41.80
2023-11-14T10:31:36.467Z,41.20
2023-11-14T10:34:07.345Z,41.80
2023-11-14T10:36:50.137Z,41.70
2023-11-14T10:39:19.601Z,42.00
2023-11-14T10:41:47.925Z,42.20
2023-11-14T10:44:16.022Z,41.30
2023-11-14T10:46:51.448Z,41.60
2023-11-14T10:49:20.748Z,42.30
2023-11-14T10:51:51.413Z,41.20
2023-11-14T10:54:20.602Z,42.00
2023-11-14T10:56:55.891Z,41.80
2023-11-14T10:59:28.929Z,41.80
2023-11-14T11:01:57.307Z,42.10
2023-11-14T11:04:25.743Z,42.50
2023-11-14T11:06:55.162Z,42.30
2023-11-14T11:09:24.625Z,43.20
2023-11-14T11:11:56.540Z,43.50
2023-11-14T11:14:25.718Z,41.40
2023-11-14T11:16:54.855Z,41.30
2023-11-14T11:19:30.038Z,41.30
2023-11-14T11:22:11.125Z,41.50
2023-11-14T11:25:18.066Z,39.50
2023-11-14T11:27:46.485Z,38.90
2023-11-14T11:30:15.717Z,38.20
2023-11-14T11:32:43.951Z,38.50
2023-11-14T11:35:32.544Z,36.80
2023-11-14T11:38:09.913Z,36.20
2023-11-14T11:40:58.825Z,36.40
2023-11-14T11:43:28.273Z,35.90
2023-11-14T11:45:56.451Z,36.10
2023-11-14T11:48:28.922Z,36.50
2023-11-14T11:51:17.547Z,37.90
2023-11-14T11:53:47.888Z,35.60
2023-11-14T11:56:40.621Z,36.80
2023-11-14T11:59:08.847Z,37.20
2023-11-14T12:01:48.177Z,35.80
2023-11-14T12:04:18.000Z,35.70
2023-11-14T12:06:47.927Z,35.80
2023-11-14T12:09:18.373Z,36.00
2023-11-14T12:11:46.478Z,35.30
2023-11-14T12:14:14.725Z,33.70
2023-11-14T12:16:43.862Z,34.50
2023-11-14T12:19:11.972Z,33.60
2023-11-14T12:21:40.178Z,32.80
2023-11-14T12:24:09.580Z,32.40
2023-11-14T12:26:39.453Z,31.80
2023-11-14T12:29:09.263Z,31.50
2023-11-14T12:31:37.500Z,32.60
2023-11-14T12:34:09.561Z,31.80
2023-11-14T12:36:38.191Z,33.30
2023-11-14T12:39:14.800Z,31.40
2023-11-14T12:41:46.910Z,31.50
2023-11-14T12:44:17.095Z,33.20
2023-11-14T12:46:47.776Z,32.00
2023-11-14T12:49:18.790Z,31.30
2023-11-14T12:51:49.652Z,31.80
2023-11-14T12:54:19.425Z,33.20
2023-11-14T12:56:49.712Z,32.50
2023-11-14T12:59:20.496Z,32.90
2023-11-14T13:01:51.112Z,32.90
2023-11-14T13:04:20.203Z,32.30
2023-11-14T13:06:53.450Z,32.70
2023-11-14T13:09:21.560Z,32.10
2023-11-14T13:11:51.237Z,32.80
2023-11-14T13:14:19.492Z,34.00
2023-11-14T13:16:48.691Z,33.50
2023-11-14T13:19:17.081Z,34.80
2023-11-14T13:21:45.156Z,33.50
2023-11-14T13:24:13.299Z,33.70
2023-11-14T13:26:41.689Z,32.90
2023-11-14T13:29:11.306Z,34.60
2023-11-14T13:31:39.794Z,34.40
2023-11-14T13:34:08.590Z,34.20
2023-11-14T13:36:37.126Z,34.80
2023-11-14T13:39:07.110Z,34.80
2023-11-14T13:41:46.678Z,34.30
2023-11-14T13:44:19.155Z,34.20
2023-11-14T13:46:47.888Z,34.20
2023-11-14T13:49:20.407Z,34.20
2023-11-14T13:51:49.307Z,35.40
2023-11-14T13:54:20.753Z,35.00
2023-11-14T13:56:50.001Z,35.30
2023-11-14T13:59:20.560Z,34.60
2023-11-14T14:01:48.672Z,35.30
2023-11-14T14:04:16.867Z,35.40
2023-11-14T14:06:44.923Z,35.30
2023-11-14T14:09:14.437Z,35.40
2023-11-14T14:11:42.835Z,35.20
2023-11-14T14:14:12.742Z,35.30
2023-11-14T14:16:43.610Z,35.30
2023-11-14T14:19:12.293Z,35.40
2023-11-14T14:21:41.454Z,35.30
2023-11-14T14:24:11.069Z,35.20
2023-11-14T14:26:39.277Z,35.20
2023-11-14T14:29:07.527Z,35.20
2023-11-14T14:31:37.340Z,35.20
2023-11-14T14:34:09.281Z,35.10
2023-11-14T14:36:38.758Z,35.90
2023-11-14T14:39:09.101Z,35.30
2023-11-14T14:41:37.348Z,35.80
2023-11-14T14:44:07.158Z,35.30
2023-11-14T14:46:35.473Z,35.80
2023-11-14T14:49:04.961Z,36.40
2023-11-14T14:51:34.332Z,37.20
2023-11-14T14:54:04.203Z,37.70
2023-11-14T14:56:32.577Z,38.50
2023-11-14T14:59:01.360Z,38.00
2023-11-14T15:01:29.604Z,38.20
2023-11-14T15:03:58.050Z,38.10
2023-11-14T15:06:27.872Z,38.60
2023-11-14T15:08:57.338Z,38.90
2023-11-14T15:11:25.804Z,39.50
2023-11-14T15:13:53.916Z,39.80
2023-11-14T15:16:22.034Z,40.40
2023-11-14T15:18:50.581Z,41.00
2023-11-14T15:21:18.732Z,40.90
2023-11-14T15:23:46.829Z,40.90
2023-11-14T15:26:16.422Z,40.80
2023-11-14T15:28:44.900Z,40.80
2023-11-14T15:31:14.351Z,40.80
2023-11-14T15:33:44.068Z,40.90
2023-11-14T15:36:16.043Z,41.00
2023-11-14T15:38:44.228Z,40.80
2023-11-14T15:41:12.365Z,40.80
2023-11-14T15:43:42.214Z,41.10
2023-11-14T15:46:11.756Z,40.80
2023-11-14T15:48:40.086Z,40.90
2023-11-14T15:51:08.488Z,40.80
2023-11-14T15:53:36.909Z,41.50
2023-11-14T15:56:05.635Z,41.60
2023-11-14T15:58:36.084Z,40.70
2023-11-14T16:01:05.746Z,40.70
2023-11-14T16:03:35.828Z,40.60
2023-11-14T16:06:04.713Z,40.70
2023-11-14T16:08:35.524Z,40.60
2023-11-14T16:11:04.461Z,40.20
2023-11-14T16:13:33.158Z,40.50
2023-11-14T16:16:06.703Z,40.40
2023-11-14T16:18:37.612Z,40.20
2023-11-14T16:21:06.612Z,39.80
2023-11-14T16:23:34.857Z,39.80
2023-11-14T16:26:03.019Z,39.80
2023-11-14T16:28:31.357Z,39.40
2023-11-14T16:31:01.432Z,39.10
2023-11-14T16:33:29.740Z,39.20
2023-11-14T16:35:59.531Z,38.50
2023-11-14T16:38:26.620Z,38.90
2023-11-14T16:40:54.816Z,38.60
2023-11-14T16:43:22.958Z,39.00
2023-11-14T16:45:50.972Z,38.70
2023-11-14T16:48:19.937Z,38.60
2023-11-14T16:50:48.099Z,38.10
2023-11-14T16:53:17.784Z,38.10
2023-11-14T16:55:46.009Z,38.20
2023-11-14T16:58:14.121Z,38.40
2023-11-14T17:00:43.216Z,38.60
2023-11-14T17:03:11.377Z,37.40
2023-11-14T17:05:41.543Z,37.60
2023-11-14T17:08:10.562Z,37.40
2023-11-14T17:10:45.099Z,37.20
2023-11-14T17:13:14.025Z,36.80
2023-11-14T17:15:42.761Z,37.30
2023-11-14T17:18:11.996Z,38.90
2023-11-14T17:20:40.160Z,40.00
2023-11-14T17:23:08.745Z,42.20
2023-11-14T17:25:36.889Z,44.20
2023-11-14T17:28:06.552Z,45.50
2023-11-14T17:30:34.673Z,47.90
2023-11-14T17:33:03.289Z,48.40
2023-11-14T17:35:32.004Z,49.50
2023-11-14T17:38:00.409Z,50.50
2023-11-14T17:40:29.114Z,51.10
2023-11-14T17:42:57.420Z,52.40
2023-11-14T17:45:27.068Z,52.90
2023-11-14T17:47:55.205Z,53.70
2023-11-14T17:50:23.568Z,54.10
2023-11-14T17:52:52.020Z,54.00
2023-11-14T17:55:20.982Z,55.40
2023-11-14T17:57:49.083Z,57.10
2023-11-14T18:00:17.898Z,57.90
2023-11-14T18:02:47.866Z,58.20
2023-11-14T18:05:16.302Z,60.40
2023-11-14T18:07:44.393Z,61.10
2023-11-14T18:10:12.562Z,62.10
2023-11-14T18:12:40.670Z,64.20
2023-11-14T18:15:09.974Z,66.10
2023-11-14T18:17:38.395Z,67.70
2023-11-14T18:20:11.793Z,69.80
2023-11-14T18:22:38.979Z,71.70
2023-11-14T18:25:07.734Z,74.30
2023-11-14T18:27:35.891Z,75.00
2023-11-14T18:30:05.326Z,76.30
2023-11-14T18:32:35.983Z,77.30
2023-11-14T18:35:10.528Z,77.90
2023-11-14T18:37:38.948Z,77.00
2023-11-14T18:40:08.541Z,77.30
2023-11-14T18:42:37.978Z,77.90
2023-11-14T18:45:08.302Z,77.60
2023-11-14T18:47:37.085Z,78.30
2023-11-14T18:50:06.787Z,79.20
2023-11-14T18:52:37.072Z,79.20
2023-11-14T18:55:06.423Z,80.40
2023-11-14T18:57:34.524Z,80.80
2023-11-14T19:00:02.814Z,81.70
2023-11-14T19:02:31.028Z,81.30
2023-11-14T19:04:59.402Z,81.10
2023-11-14T19:07:28.319Z,80.90
2023-11-14T19:09:58.044Z,80.60
2023-11-14T19:12:26.534Z,80.60
2023-11-14T19:14:55.291Z,81.30
2023-11-14T19:17:24.872Z,81.80
2023-11-14T19:19:53.111Z,81.40
2023-11-14T19:23:03.963Z,81.10
2023-11-14T19:25:13.461Z,80.80
2023-11-14T19:27:41.789Z,80.80
2023-11-14T19:30:13.496Z,81.50
2023-11-14T19:32:43.065Z,81.50
2023-11-14T19:35:11.857Z,82.10
2023-11-14T19:37:39.973Z,82.20
2023-11-14T19:40:11.059Z,82.20
2023-11-14T19:42:40.900Z,82.20
2023-11-14T19:45:10.182Z,82.40
2023-11-14T19:47:38.802Z,83.20
2023-11-14T19:50:07.758Z,83.20
2023-11-14T19:52:36.307Z,83.30
2023-11-14T19:55:04.883Z,83.20
2023-11-14T19:57:33.614Z,82.90
2023-11-14T20:00:14.644Z,82.90
2023-11-14T20:02:45.347Z,82.60
2023-11-14T20:05:14.820Z,82.30
2023-11-14T20:07:43.638Z,82.30
2023-11-14T20:10:13.598Z,82.10
2023-11-14T20:12:44.326Z,82.30
2023-11-14T20:15:17.391Z,82.40
2023-11-14T20:17:46.778Z,82.30
2023-11-14T20:20:15.600Z,80.90
2023-11-14T20:22:44.011Z,80.40
2023-11-14T20:25:12.528Z,79.30
2023-11-14T20:27:41.970Z,77.90
2023-11-14T20:30:10.739Z,76.60
2023-11-14T20:32:40.658Z,75.00
2023-11-14T20:35:10.209Z,75.10
2023-11-14T20:37:38.463Z,74.70
2023-11-14T20:40:08.142Z,73.30
2023-11-14T20:42:36.348Z,73.30
2023-11-14T20:45:04.948Z,71.90
2023-11-14T20:47:34.024Z,71.40
2023-11-14T20:50:03.985Z,71.20
2023-11-14T20:52:35.220Z,70.10
2023-11-14T20:55:04.161Z,70.60
2023-11-14T20:57:32.768Z,71.30
2023-11-14T21:00:00.829Z,71.30
2023-11-14T21:02:30.951Z,71.50
2023-11-14T21:05:00.984Z,71.40
2023-11-14T21:07:30.506Z,70.80
2023-11-14T21:09:58.580Z,70.40
2023-11-14T21:12:27.573Z,68.70
2023-11-14T21:14:55.993Z,67.90
2023-11-14T21:17:25.459Z,66.60
2023-11-14T21:19:54.880Z,65.80
2023-11-14T21:22:23.034Z,65.40
2023-11-14T21:24:52.856Z,64.50
2023-11-14T21:27:24.499Z,60.90
2023-11-14T21:29:55.381Z,61.00
2023-11-14T21:32:31.552Z,58.80
2023-11-14T21:34:59.795Z,58.90
2023-11-14T21:37:28.849Z,57.70
2023-11-14T21:39:58.817Z,57.60
2023-11-14T21:42:27.536Z,57.90
2023-11-14T21:44:55.677Z,58.90
2023-11-14T21:47:23.909Z,59.50
2023-11-14T21:49:52.042Z,60.70
2023-11-14T21:52:20.077Z,60.70
2023-11-14T21:54:48.201Z,60.30
2023-11-14T21:57:17.910Z,60.70
2023-11-14T21:59:46.076Z,59.80
2023-11-14T22:02:14.711Z,59.00
2023-11-14T22:04:43.365Z,58.90
2023-11-14T22:07:19.030Z,58.10
2023-11-14T22:09:47.842Z,57.30
2023-11-14T22:12:17.328Z,56.70
2023-11-14T22:14:45.402Z,55.50
2023-11-14T22:17:16.452Z,55.80
2023-11-14T22:19:45.010Z,55.40
2023-11-14T22:22:14.267Z,55.00
2023-11-14T22:24:42.435Z,52.80
2023-11-14T22:27:10.496Z,52.90
2023-11-14T22:29:40.054Z,52.80
2023-11-14T22:32:08.735Z,52.40
2023-11-14T22:34:37.094Z,52.00
2023-11-14T22:37:07.792Z,50.90
2023-11-14T22:39:38.671Z,51.50
2023-11-14T22:42:07.065Z,51.60
2023-11-14T22:44:35.168Z,51.40
2023-11-14T22:47:04.593Z,52.40
2023-11-14T22:49:32.850Z,51.80
2023-11-14T22:52:00.898Z,51.70
2023-11-14T22:54:29.022Z,50.60
2023-11-14T22:56:57.115Z,50.90
2023-11-14T22:59:25.314Z,50.20
2023-11-14T23:01:53.852Z,50.80
2023-11-14T23:04:25.605Z,50.40
2023-11-14T23:06:55.283Z,50.50
2023-11-14T23:09:24.572Z,50.30
2023-11-14T23:11:53.043Z,50.20
2023-11-14T23:14:22.011Z,50.50
2023-11-14T23:16:51.505Z,49.00
2023-11-14T23:19:20.828Z,47.50
2023-11-14T23:21:55.416Z,47.80
2023-11-14T23:24:26.082Z,47.00
2023-11-14T23:26:54.412Z,46.80
2023-11-14T23:29:22.572Z,46.90
2023-11-14T23:31:50.592Z,46.70
2023-11-14T23:34:18.681Z,45.80
2023-11-14T23:36:46.819Z,44.10
2023-11-14T23:39:17.900Z,45.30
2023-11-14T23:41:46.491Z,44.70
2023-11-14T23:44:15.348Z,44.10
2023-11-14T23:46:43.949Z,44.00
2023-11-14T23:49:12.285Z,44.50
2023-11-14T23:51:41.681Z,45.50
2023-11-14T23:54:10.190Z,46.00
2023-11-14T23:56:40.791Z,46.70
2023-11-14T23:59:08.915Z,46.60
